sensor_id;sensor_type;location;lat;lon;timestamp;temperature;humidity
23251;DHT22;11794;49.730;10.088;2023-05-10T00:00:33;14.10;99.90
23251;DHT22;11794;49.730;10.088;2023-05-10T00:02:58;14.10;99.90
23251;DHT22;11794;49.730;10.088;2023-05-10T00:05:24;14.00;99.90
23251;DHT22;11794;49.730;10.088;2023-05-10T00:07:50;14.00;99.90
23251;DHT22;11794;49.730;10.088;2023-05-10T00:10:15;14.00;99.90
23251;DHT22;11794;49.730;10.088;2023-05-10T00:12:41;14.00;99.90
23251;DHT22;11794;49.730;10.088;2023-05-10T00:15:07;14.00;99.90
23251;DHT22;11794;49.730;10.088;2023-05-10T00:17:33;13.90;99.90
23251;DHT22;11794;49.730;10.088;2023-05-10T00:19:58;14.00;99.90
23251;DHT22;11794;49.730;10.088;2023-05-10T00:22:24;14.00;99.90
23251;DHT22;11794;49.730;10.088;2023-05-10T00:24:49;13.90;99.90
23251;DHT22;11794;49.730;10.088;2023-05-10T00:27:15;13.90;99.90
23251;DHT22;11794;49.730;10.088;2023-05-10T00:29:40;13.90;99.90
23251;DHT22;11794;49.730;10.088;2023-05-10T00:32:06;13.90;99.90
23251;DHT22;11794;49.730;10.088;2023-05-10T00:34:31;13.90;99.90
23251;DHT22;11794;49.730;10.088;2023-05-10T00:36:57;13.90;99.90
23251;DHT22;11794;49.730;10.088;2023-05-10T00:39:23;13.80;99.90
23251;DHT22;11794;49.730;10.088;2023-05-10T00:41:48;13.80;99.90
23251;DHT22;11794;49.730;10.088;2023-05-10T00:44:14;13.90;99.90
23251;DHT22;11794;49.730;10.088;2023-05-10T00:46:39;13.80;99.90
23251;DHT22;11794;49.730;10.088;2023-05-10T00:49:06;13.80;99.90
23251;DHT22;11794;49.730;10.088;2023-05-10T00:51:31;13.80;99.90
23251;DHT22;11794;49.730;10.088;2023-05-10T00:53:57;13.80;99.90
23251;DHT22;11794;49.730;10.088;2023-05-10T00:56:23;13.80;99.90
23251;DHT22;11794;49.730;10.088;2023-05-10T00:58:50;13.70;99.90
23251;DHT22;11794;49.730;10.088;2023-05-10T01:01:15;13.70;99.90
23251;DHT22;11794;49.730;10.088;2023-05-10T01:03:41;13.70;99.90
23251;DHT22;11794;49.730;10.088;2023-05-10T01:06:07;13.70;99.90
23251;DHT22;11794;49.730;10.088;2023-05-10T01:08:33;13.70;99.90
23251;DHT22;11794;49.730;10.088;2023-05-10T01:10:58;13.70;99.90
23251;DHT22;11794;49.730;10.088;2023-05-10T01:13:35;13.70;99.90
23251;DHT22;11794;49.730;10.088;2023-05-10T01:16:02;13.60;99.90
23251;DHT22;11794;49.730;10.088;2023-05-10T01:18:29;13.70;99.90
23251;DHT22;11794;49.730;10.088;2023-05-10T01:24:06;13.60;99.90
23251;DHT22;11794;49.730;10.088;2023-05-10T01:26:59;13.70;99.90
23251;DHT22;11794;49.730;10.088;2023-05-10T01:35:20;13.60;99.90
23251;DHT22;11794;49.730;10.088;2023-05-10T01:38:34;13.60;99.90
23251;DHT22;11794;49.730;10.088;2023-05-10T01:41:17;13.60;99.90
23251;DHT22;11794;49.730;10.088;2023-05-10T01:44:04;13.60;99.90
23251;DHT22;11794;49.730;10.088;2023-05-10T01:46:37;13.60;99.90
23251;DHT22;11794;49.730;10.088;2023-05-10T01:49:10;13.60;99.90
23251;DHT22;11794;49.730;10.088;2023-05-10T01:52:00;13.60;99.90
23251;DHT22;11794;49.730;10.088;2023-05-10T01:54:28;13.50;99.90
23251;DHT22;11794;49.730;10.088;2023-05-10T01:57:01;13.40;99.90
23251;DHT22;11794;49.730;10.088;2023-05-10T01:59:31;13.40;99.90
23251;DHT22;11794;49.730;10.088;2023-05-10T02:02:02;13.40;99.90
23251;DHT22;11794;49.730;10.088;2023-05-10T02:04:29;13.50;99.90
23251;DHT22;11794;49.730;10.088;2023-05-10T02:06:56;13.40;99.90
23251;DHT22;11794;49.730;10.088;2023-05-10T02:09:23;13.40;99.90
23251;DHT22;11794;49.730;10.088;2023-05-10T02:11:50;13.30;99.90
23251;DHT22;11794;49.730;10.088;2023-05-10T02:14:18;13.20;99.90
23251;DHT22;11794;49.730;10.088;2023-05-10T02:16:45;13.20;99.90
23251;DHT22;11794;49.730;10.088;2023-05-10T02:19:12;13.20;99.90
23251;DHT22;11794;49.730;10.088;2023-05-10T02:21:39;13.20;99.90
23251;DHT22;11794;49.730;10.088;2023-05-10T02:24:05;13.20;99.90
23251;DHT22;11794;49.730;10.088;2023-05-10T02:26:32;13.20;99.90
23251;DHT22;11794;49.730;10.088;2023-05-10T02:29:02;13.10;99.90
23251;DHT22;11794;49.730;10.088;2023-05-10T02:31:30;13.10;99.90
23251;DHT22;11794;49.730;10.088;2023-05-10T02:33:57;13.10;99.90
23251;DHT22;11794;49.730;10.088;2023-05-10T02:36:23;13.00;99.90
23251;DHT22;11794;49.730;10.088;2023-05-10T02:38:51;13.00;99.90
23251;DHT22;11794;49.730;10.088;2023-05-10T02:41:20;13.00;99.90
23251;DHT22;11794;49.730;10.088;2023-05-10T02:43:50;12.90;99.90
23251;DHT22;11794;49.730;10.088;2023-05-10T02:46:16;12.90;99.90
23251;DHT22;11794;49.730;10.088;2023-05-10T02:48:41;12.90;99.90
23251;DHT22;11794;49.730;10.088;2023-05-10T02:51:07;12.90;99.90
23251;DHT22;11794;49.730;10.088;2023-05-10T02:53:36;12.90;99.90
23251;DHT22;11794;49.730;10.088;2023-05-10T02:56:05;12.90;99.90
23251;DHT22;11794;49.730;10.088;2023-05-10T02:58:35;12.90;99.90
23251;DHT22;11794;49.730;10.088;2023-05-10T03:01:00;12.90;99.90
23251;DHT22;11794;49.730;10.088;2023-05-10T03:03:26;12.80;99.90
23251;DHT22;11794;49.730;10.088;2023-05-10T03:05:51;12.90;99.90
23251;DHT22;11794;49.730;10.088;2023-05-10T03:08:21;12.80;99.90
23251;DHT22;11794;49.730;10.088;2023-05-10T03:11:07;12.80;99.90
23251;DHT22;11794;49.730;10.088;2023-05-10T03:16:16;12.80;99.90
23251;DHT22;11794;49.730;10.088;2023-05-10T03:18:56;12.80;99.90
23251;DHT22;11794;49.730;10.088;2023-05-10T03:21:28;12.80;99.90
23251;DHT22;11794;49.730;10.088;2023-05-10T03:23:59;12.70;99.90
23251;DHT22;11794;49.730;10.088;2023-05-10T03:26:29;12.70;99.90
23251;DHT22;11794;49.730;10.088;2023-05-10T03:28:55;12.70;99.90
23251;DHT22;11794;49.730;10.088;2023-05-10T03:31:24;12.60;99.90
23251;DHT22;11794;49.730;10.088;2023-05-10T03:33:51;12.50;99.90
23251;DHT22;11794;49.730;10.088;2023-05-10T03:36:17;12.50;99.90
23251;DHT22;11794;49.730;10.088;2023-05-10T03:38:42;12.40;99.90
23251;DHT22;11794;49.730;10.088;2023-05-10T03:41:08;12.40;99.90
23251;DHT22;11794;49.730;10.088;2023-05-10T03:43:33;12.30;99.90
23251;DHT22;11794;49.730;10.088;2023-05-10T03:46:02;12.30;99.90
23251;DHT22;11794;49.730;10.088;2023-05-10T03:48:27;12.20;99.90
23251;DHT22;11794;49.730;10.088;2023-05-10T03:50:53;12.10;99.90
23251;DHT22;11794;49.730;10.088;2023-05-10T03:53:18;12.10;99.90
23251;DHT22;11794;49.730;10.088;2023-05-10T03:55:44;12.00;99.90
23251;DHT22;11794;49.730;10.088;2023-05-10T03:58:12;12.00;99.90
23251;DHT22;11794;49.730;10.088;2023-05-10T04:00:38;12.00;99.90
23251;DHT22;11794;49.730;10.088;2023-05-10T04:03:09;12.00;99.90
23251;DHT22;11794;49.730;10.088;2023-05-10T04:05:35;12.00;99.90
23251;DHT22;11794;49.730;10.088;2023-05-10T04:08:01;12.00;99.90
23251;DHT22;11794;49.730;10.088;2023-05-10T04:10:27;12.00;99.90
23251;DHT22;11794;49.730;10.088;2023-05-10T04:12:52;12.00;99.90
23251;DHT22;11794;49.730;10.088;2023-05-10T04:15:18;12.10;99.90
23251;DHT22;11794;49.730;10.088;2023-05-10T04:17:43;12.10;99.90
23251;DHT22;11794;49.730;10.088;2023-05-10T04:20:09;12.20;99.90
23251;DHT22;11794;49.730;10.088;2023-05-10T04:22:35;12.20;99.90
23251;DHT22;11794;49.730;10.088;2023-05-10T04:25:00;12.30;99.90
23251;DHT22;11794;49.730;10.088;2023-05-10T04:27:26;12.30;99.90
23251;DHT22;11794;49.730;10.088;2023-05-10T04:29:51;12.30;99.90
23251;DHT22;11794;49.730;10.088;2023-05-10T04:32:17;12.40;99.90
23251;DHT22;11794;49.730;10.088;2023-05-10T04:34:43;12.50;99.90
23251;DHT22;11794;49.730;10.088;2023-05-10T04:37:09;12.50;99.90
23251;DHT22;11794;49.730;10.088;2023-05-10T04:39:34;12.50;99.90
23251;DHT22;11794;49.730;10.088;2023-05-10T04:42:01;12.50;99.90
23251;DHT22;11794;49.730;10.088;2023-05-10T04:44:28;12.50;99.90
23251;DHT22;11794;49.730;10.088;2023-05-10T04:46:54;12.50;99.90
23251;DHT22;11794;49.730;10.088;2023-05-10T04:49:19;12.40;99.90
23251;DHT22;11794;49.730;10.088;2023-05-10T04:51:45;12.50;99.90
23251;DHT22;11794;49.730;10.088;2023-05-10T04:54:10;12.50;99.90
23251;DHT22;11794;49.730;10.088;2023-05-10T04:56:36;12.50;99.90
23251;DHT22;11794;49.730;10.088;2023-05-10T04:59:01;12.50;99.90
23251;DHT22;11794;49.730;10.088;2023-05-10T05:01:27;12.60;99.90
23251;DHT22;11794;49.730;10.088;2023-05-10T05:03:53;12.60;99.90
23251;DHT22;11794;49.730;10.088;2023-05-10T05:06:18;12.70;99.90
23251;DHT22;11794;49.730;10.088;2023-05-10T05:08:46;12.70;99.90
23251;DHT22;11794;49.730;10.088;2023-05-10T05:11:11;12.70;99.90
23251;DHT22;11794;49.730;10.088;2023-05-10T05:13:37;12.70;99.90
23251;DHT22;11794;49.730;10.088;2023-05-10T05:16:03;12.80;99.90
23251;DHT22;11794;49.730;10.088;2023-05-10T05:18:28;12.80;99.90
23251;DHT22;11794;49.730;10.088;2023-05-10T05:20:54;12.80;99.90
23251;DHT22;11794;49.730;10.088;2023-05-10T05:23:19;12.90;99.90
23251;DHT22;11794;49.730;10.088;2023-05-10T05:25:46;13.00;99.90
23251;DHT22;11794;49.730;10.088;2023-05-10T05:28:12;13.00;99.90
23251;DHT22;11794;49.730;10.088;2023-05-10T05:30:37;13.00;99.90
23251;DHT22;11794;49.730;10.088;2023-05-10T05:33:03;13.00;99.90
23251;DHT22;11794;49.730;10.088;2023-05-10T05:35:28;13.10;99.90
23251;DHT22;11794;49.730;10.088;2023-05-10T05:37:54;13.10;99.90
23251;DHT22;11794;49.730;10.088;2023-05-10T05:40:19;13.10;99.90
23251;DHT22;11794;49.730;10.088;2023-05-10T05:42:45;13.20;99.90
23251;DHT22;11794;49.730;10.088;2023-05-10T05:45:11;13.30;99.90
23251;DHT22;11794;49.730;10.088;2023-05-10T05:47:39;13.30;99.90
23251;DHT22;11794;49.730;10.088;2023-05-10T05:50:05;13.30;99.90
23251;DHT22;11794;49.730;10.088;2023-05-10T05:52:30;13.30;99.90
23251;DHT22;11794;49.730;10.088;2023-05-10T05:54:56;13.30;99.90
23251;DHT22;11794;49.730;10.088;2023-05-10T05:57:21;13.30;99.90
23251;DHT22;11794;49.730;10.088;2023-05-10T05:59:48;13.40;99.90
23251;DHT22;11794;49.730;10.088;2023-05-10T06:02:13;13.40;99.90
23251;DHT22;11794;49.730;10.088;2023-05-10T06:04:39;13.40;99.90
23251;DHT22;11794;49.730;10.088;2023-05-10T06:07:04;13.40;99.90
23251;DHT22;11794;49.730;10.088;2023-05-10T06:09:30;13.40;99.90
23251;DHT22;11794;49.730;10.088;2023-05-10T06:11:55;13.40;99.90
23251;DHT22;11794;49.730;10.088;2023-05-10T06:14:21;13.40;99.90
23251;DHT22;11794;49.730;10.088;2023-05-10T06:16:47;13.50;99.90
23251;DHT22;11794;49.730;10.088;2023-05-10T06:19:13;13.50;99.90
23251;DHT22;11794;49.730;10.088;2023-05-10T06:21:38;13.50;99.90
23251;DHT22;11794;49.730;10.088;2023-05-10T06:24:05;13.50;99.90
23251;DHT22;11794;49.730;10.088;2023-05-10T06:26:32;13.60;99.90
23251;DHT22;11794;49.730;10.088;2023-05-10T06:28:57;13.50;99.90
23251;DHT22;11794;49.730;10.088;2023-05-10T06:31:23;13.60;99.90
23251;DHT22;11794;49.730;10.088;2023-05-10T06:33:48;13.60;99.90
23251;DHT22;11794;49.730;10.088;2023-05-10T06:36:14;13.60;99.90
23251;DHT22;11794;49.730;10.088;2023-05-10T06:38:40;13.60;99.90
23251;DHT22;11794;49.730;10.088;2023-05-10T06:41:05;13.60;99.90
23251;DHT22;11794;49.730;10.088;2023-05-10T06:43:31;13.60;99.90
23251;DHT22;11794;49.730;10.088;2023-05-10T06:45:57;13.50;99.90
23251;DHT22;11794;49.730;10.088;2023-05-10T06:48:22;13.60;99.90
23251;DHT22;11794;49.730;10.088;2023-05-10T06:50:48;13.60;99.90
23251;DHT22;11794;49.730;10.088;2023-05-10T06:53:14;13.60;99.90
23251;DHT22;11794;49.730;10.088;2023-05-10T06:55:39;13.70;99.90
23251;DHT22;11794;49.730;10.088;2023-05-10T06:58:05;13.90;99.90
23251;DHT22;11794;49.730;10.088;2023-05-10T07:00:31;14.00;99.90
23251;DHT22;11794;49.730;10.088;2023-05-10T07:02:57;14.00;99.90
23251;DHT22;11794;49.730;10.088;2023-05-10T07:05:22;14.20;99.90
23251;DHT22;11794;49.730;10.088;2023-05-10T07:07:48;14.50;99.90
23251;DHT22;11794;49.730;10.088;2023-05-10T07:10:14;14.70;99.90
23251;DHT22;11794;49.730;10.088;2023-05-10T07:12:39;14.80;99.90
23251;DHT22;11794;49.730;10.088;2023-05-10T07:15:05;14.70;99.90
23251;DHT22;11794;49.730;10.088;2023-05-10T07:17:31;14.70;99.90
23251;DHT22;11794;49.730;10.088;2023-05-10T07:19:58;14.70;99.90
23251;DHT22;11794;49.730;10.088;2023-05-10T07:22:24;14.70;99.90
23251;DHT22;11794;49.730;10.088;2023-05-10T07:24:50;14.70;99.90
23251;DHT22;11794;49.730;10.088;2023-05-10T07:27:15;14.80;99.90
23251;DHT22;11794;49.730;10.088;2023-05-10T07:29:41;14.70;99.90
23251;DHT22;11794;49.730;10.088;2023-05-10T07:32:06;14.60;99.90
23251;DHT22;11794;49.730;10.088;2023-05-10T07:34:32;14.50;99.90
23251;DHT22;11794;49.730;10.088;2023-05-10T07:36:58;14.50;99.90
23251;DHT22;11794;49.730;10.088;2023-05-10T07:39:24;14.40;99.90
23251;DHT22;11794;49.730;10.088;2023-05-10T07:41:49;14.40;99.90
23251;DHT22;11794;49.730;10.088;2023-05-10T07:44:15;14.40;99.90
23251;DHT22;11794;49.730;10.088;2023-05-10T07:46:43;14.50;99.90
23251;DHT22;11794;49.730;10.088;2023-05-10T07:49:09;14.50;99.90
23251;DHT22;11794;49.730;10.088;2023-05-10T07:51:34;14.40;99.90
23251;DHT22;11794;49.730;10.088;2023-05-10T07:54:00;14.50;99.90
23251;DHT22;11794;49.730;10.088;2023-05-10T07:56:31;14.60;99.90
23251;DHT22;11794;49.730;10.088;2023-05-10T07:58:58;14.70;99.90
23251;DHT22;11794;49.730;10.088;2023-05-10T08:01:24;14.60;99.90
23251;DHT22;11794;49.730;10.088;2023-05-10T08:03:50;14.60;99.90
23251;DHT22;11794;49.730;10.088;2023-05-10T08:06:17;14.70;99.90
23251;DHT22;11794;49.730;10.088;2023-05-10T08:08:43;15.00;99.90
23251;DHT22;11794;49.730;10.088;2023-05-10T08:11:10;15.40;99.90
23251;DHT22;11794;49.730;10.088;2023-05-10T08:13:36;15.60;99.90
23251;DHT22;11794;49.730;10.088;2023-05-10T08:16:01;15.60;99.90
23251;DHT22;11794;49.730;10.088;2023-05-10T08:18:27;15.70;99.90
23251;DHT22;11794;49.730;10.088;2023-05-10T08:20:53;15.80;99.90
23251;DHT22;11794;49.730;10.088;2023-05-10T08:23:18;16.00;99.90
23251;DHT22;11794;49.730;10.088;2023-05-10T08:25:44;16.10;99.90
23251;DHT22;11794;49.730;10.088;2023-05-10T08:28:09;16.30;99.90
23251;DHT22;11794;49.730;10.088;2023-05-10T08:30:35;16.70;99.90
23251;DHT22;11794;49.730;10.088;2023-05-10T08:33:00;17.10;99.90
23251;DHT22;11794;49.730;10.088;2023-05-10T08:35:26;17.10;99.90
23251;DHT22;11794;49.730;10.088;2023-05-10T08:37:51;17.10;99.90
23251;DHT22;11794;49.730;10.088;2023-05-10T08:40:19;17.00;99.90
23251;DHT22;11794;49.730;10.088;2023-05-10T08:42:55;16.70;99.90
23251;DHT22;11794;49.730;10.088;2023-05-10T08:45:23;16.60;99.90
23251;DHT22;11794;49.730;10.088;2023-05-10T08:47:49;16.50;99.90
23251;DHT22;11794;49.730;10.088;2023-05-10T08:50:17;16.50;99.90
23251;DHT22;11794;49.730;10.088;2023-05-10T08:52:45;16.40;99.90
23251;DHT22;11794;49.730;10.088;2023-05-10T08:55:13;16.30;99.90
23251;DHT22;11794;49.730;10.088;2023-05-10T08:57:40;16.20;99.90
23251;DHT22;11794;49.730;10.088;2023-05-10T09:00:06;16.10;99.90
23251;DHT22;11794;49.730;10.088;2023-05-10T09:02:33;15.90;99.90
23251;DHT22;11794;49.730;10.088;2023-05-10T09:04:58;15.90;99.90
23251;DHT22;11794;49.730;10.088;2023-05-10T09:07:24;16.00;99.90
23251;DHT22;11794;49.730;10.088;2023-05-10T09:09:51;15.80;99.90
23251;DHT22;11794;49.730;10.088;2023-05-10T09:12:17;16.10;99.90
23251;DHT22;11794;49.730;10.088;2023-05-10T09:14:43;16.30;99.90
23251;DHT22;11794;49.730;10.088;2023-05-10T09:17:09;16.80;99.90
23251;DHT22;11794;49.730;10.088;2023-05-10T09:19:35;17.50;99.90
23251;DHT22;11794;49.730;10.088;2023-05-10T09:22:00;17.90;99.90
23251;DHT22;11794;49.730;10.088;2023-05-10T09:24:29;18.40;99.90
23251;DHT22;11794;49.730;10.088;2023-05-10T09:26:57;19.00;99.90
23251;DHT22;11794;49.730;10.088;2023-05-10T09:29:22;19.10;99.90
23251;DHT22;11794;49.730;10.088;2023-05-10T09:31:50;19.10;99.90
23251;DHT22;11794;49.730;10.088;2023-05-10T09:34:31;18.80;99.90
23251;DHT22;11794;49.730;10.088;2023-05-10T09:36:59;18.40;99.90
23251;DHT22;11794;49.730;10.088;2023-05-10T09:39:33;18.30;99.90
23251;DHT22;11794;49.730;10.088;2023-05-10T09:42:02;18.20;99.90
23251;DHT22;11794;49.730;10.088;2023-05-10T09:44:29;18.30;99.90
23251;DHT22;11794;49.730;10.088;2023-05-10T09:46:55;18.30;99.90
23251;DHT22;11794;49.730;10.088;2023-05-10T09:49:23;18.40;99.90
23251;DHT22;11794;49.730;10.088;2023-05-10T09:52:03;18.40;99.90
23251;DHT22;11794;49.730;10.088;2023-05-10T09:54:28;18.80;99.90
23251;DHT22;11794;49.730;10.088;2023-05-10T09:56:54;19.00;99.90
23251;DHT22;11794;49.730;10.088;2023-05-10T09:59:20;19.40;99.90
23251;DHT22;11794;49.730;10.088;2023-05-10T10:01:52;19.10;99.90
23251;DHT22;11794;49.730;10.088;2023-05-10T10:04:17;19.40;99.90
23251;DHT22;11794;49.730;10.088;2023-05-10T10:06:45;20.30;99.90
23251;DHT22;11794;49.730;10.088;2023-05-10T10:09:10;21.20;99.90
23251;DHT22;11794;49.730;10.088;2023-05-10T10:11:37;21.60;99.90
23251;DHT22;11794;49.730;10.088;2023-05-10T10:14:04;21.80;99.90
23251;DHT22;11794;49.730;10.088;2023-05-10T10:16:30;21.90;99.90
23251;DHT22;11794;49.730;10.088;2023-05-10T10:18:56;22.30;99.90
23251;DHT22;11794;49.730;10.088;2023-05-10T10:21:22;22.80;99.90
23251;DHT22;11794;49.730;10.088;2023-05-10T10:23:48;22.90;99.90
23251;DHT22;11794;49.730;10.088;2023-05-10T10:26:14;23.30;99.90
23251;DHT22;11794;49.730;10.088;2023-05-10T10:31:46;22.00;99.90
23251;DHT22;11794;49.730;10.088;2023-05-10T10:34:28;21.60;99.90
23251;DHT22;11794;49.730;10.088;2023-05-10T10:36:56;21.30;99.90
23251;DHT22;11794;49.730;10.088;2023-05-10T10:39:22;20.90;99.90
23251;DHT22;11794;49.730;10.088;2023-05-10T10:41:53;20.40;99.90
23251;DHT22;11794;49.730;10.088;2023-05-10T10:44:22;20.10;99.90
23251;DHT22;11794;49.730;10.088;2023-05-10T10:49:52;19.20;99.90
23251;DHT22;11794;49.730;10.088;2023-05-10T10:52:37;18.80;99.90
23251;DHT22;11794;49.730;10.088;2023-05-10T10:55:12;19.00;99.90
23251;DHT22;11794;49.730;10.088;2023-05-10T11:02:47;19.90;99.90
23251;DHT22;11794;49.730;10.088;2023-05-10T11:08:19;20.40;99.90
23251;DHT22;11794;49.730;10.088;2023-05-10T11:15:55;20.40;99.90
23251;DHT22;11794;49.730;10.088;2023-05-10T11:18:26;20.30;99.90
23251;DHT22;11794;49.730;10.088;2023-05-10T11:21:00;20.10;99.90
23251;DHT22;11794;49.730;10.088;2023-05-10T11:26:09;20.50;99.90
23251;DHT22;11794;49.730;10.088;2023-05-10T11:28:41;21.00;99.90
23251;DHT22;11794;49.730;10.088;2023-05-10T11:31:06;20.60;99.90
23251;DHT22;11794;49.730;10.088;2023-05-10T11:33:43;20.40;99.90
23251;DHT22;11794;49.730;10.088;2023-05-10T11:36:14;20.10;99.90
23251;DHT22;11794;49.730;10.088;2023-05-10T11:38:40;20.10;99.90
23251;DHT22;11794;49.730;10.088;2023-05-10T11:41:08;19.90;99.90
23251;DHT22;11794;49.730;10.088;2023-05-10T11:43:34;19.80;99.90
23251;DHT22;11794;49.730;10.088;2023-05-10T11:46:02;19.50;99.90
23251;DHT22;11794;49.730;10.088;2023-05-10T11:48:29;19.50;99.90
23251;DHT22;11794;49.730;10.088;2023-05-10T11:50:55;19.30;99.90
23251;DHT22;11794;49.730;10.088;2023-05-10T11:53:22;19.20;99.90
23251;DHT22;11794;49.730;10.088;2023-05-10T11:55:48;18.90;99.90
23251;DHT22;11794;49.730;10.088;2023-05-10T11:58:13;19.10;99.90
23251;DHT22;11794;49.730;10.088;2023-05-10T12:00:39;19.90;99.90
23251;DHT22;11794;49.730;10.088;2023-05-10T12:03:05;20.20;99.90
23251;DHT22;11794;49.730;10.088;2023-05-10T12:05:34;20.30;99.90
23251;DHT22;11794;49.730;10.088;2023-05-10T12:08:21;20.70;99.90
23251;DHT22;11794;49.730;10.088;2023-05-10T12:10:47;20.80;99.90
23251;DHT22;11794;49.730;10.088;2023-05-10T12:13:13;20.40;99.90
23251;DHT22;11794;49.730;10.088;2023-05-10T12:15:39;20.30;99.90
23251;DHT22;11794;49.730;10.088;2023-05-10T12:18:05;20.30;99.90
23251;DHT22;11794;49.730;10.088;2023-05-10T12:20:31;19.90;99.90
23251;DHT22;11794;49.730;10.088;2023-05-10T12:22:58;19.70;99.90
23251;DHT22;11794;49.730;10.088;2023-05-10T12:25:29;19.70;99.90
23251;DHT22;11794;49.730;10.088;2023-05-10T12:27:56;20.20;99.90
23251;DHT22;11794;49.730;10.088;2023-05-10T12:30:26;20.60;99.90
23251;DHT22;11794;49.730;10.088;2023-05-10T12:32:53;20.80;99.90
23251;DHT22;11794;49.730;10.088;2023-05-10T12:35:19;20.90;99.90
23251;DHT22;11794;49.730;10.088;2023-05-10T12:37:50;21.10;99.90
23251;DHT22;11794;49.730;10.088;2023-05-10T12:40:16;21.00;99.90
23251;DHT22;11794;49.730;10.088;2023-05-10T12:42:41;20.80;99.90
23251;DHT22;11794;49.730;10.088;2023-05-10T12:45:09;20.50;99.90
23251;DHT22;11794;49.730;10.088;2023-05-10T12:47:35;20.30;99.90
23251;DHT22;11794;49.730;10.088;2023-05-10T12:50:01;20.50;99.90
23251;DHT22;11794;49.730;10.088;2023-05-10T12:52:28;20.50;99.90
23251;DHT22;11794;49.730;10.088;2023-05-10T12:54:54;20.00;99.90
23251;DHT22;11794;49.730;10.088;2023-05-10T12:57:22;19.60;99.90
23251;DHT22;11794;49.730;10.088;2023-05-10T12:59:48;18.60;99.90
23251;DHT22;11794;49.730;10.088;2023-05-10T13:02:15;17.90;99.90
23251;DHT22;11794;49.730;10.088;2023-05-10T13:04:43;17.40;99.90
23251;DHT22;11794;49.730;10.088;2023-05-10T13:07:09;17.00;99.90
23251;DHT22;11794;49.730;10.088;2023-05-10T13:09:35;16.60;99.90
23251;DHT22;11794;49.730;10.088;2023-05-10T13:12:01;16.50;99.90
23251;DHT22;11794;49.730;10.088;2023-05-10T13:14:27;16.40;99.90
23251;DHT22;11794;49.730;10.088;2023-05-10T13:16:52;16.50;99.90
23251;DHT22;11794;49.730;10.088;2023-05-10T13:19:18;16.60;99.90
23251;DHT22;11794;49.730;10.088;2023-05-10T13:21:43;16.60;99.90
23251;DHT22;11794;49.730;10.088;2023-05-10T13:24:12;16.40;99.90
23251;DHT22;11794;49.730;10.088;2023-05-10T13:26:42;16.30;99.90
23251;DHT22;11794;49.730;10.088;2023-05-10T13:29:08;15.90;99.90
23251;DHT22;11794;49.730;10.088;2023-05-10T13:31:34;15.80;99.90
23251;DHT22;11794;49.730;10.088;2023-05-10T13:34:00;15.60;99.90
23251;DHT22;11794;49.730;10.088;2023-05-10T13:36:25;15.60;99.90
23251;DHT22;11794;49.730;10.088;2023-05-10T13:38:51;15.50;99.90
23251;DHT22;11794;49.730;10.088;2023-05-10T13:41:17;15.40;99.90
23251;DHT22;11794;49.730;10.088;2023-05-10T13:43:42;15.30;99.90
23251;DHT22;11794;49.730;10.088;2023-05-10T13:46:08;15.20;99.90
23251;DHT22;11794;49.730;10.088;2023-05-10T13:48:33;15.10;99.90
23251;DHT22;11794;49.730;10.088;2023-05-10T13:50:59;15.10;99.90
23251;DHT22;11794;49.730;10.088;2023-05-10T13:53:24;15.30;99.90
23251;DHT22;11794;49.730;10.088;2023-05-10T13:55:50;15.20;99.90
23251;DHT22;11794;49.730;10.088;2023-05-10T13:58:16;15.40;99.90
23251;DHT22;11794;49.730;10.088;2023-05-10T14:00:41;15.30;99.90
23251;DHT22;11794;49.730;10.088;2023-05-10T14:03:07;15.20;99.90
23251;DHT22;11794;49.730;10.088;2023-05-10T14:05:34;15.20;99.90
23251;DHT22;11794;49.730;10.088;2023-05-10T14:08:00;15.30;99.90
23251;DHT22;11794;49.730;10.088;2023-05-10T14:10:25;15.70;99.90
23251;DHT22;11794;49.730;10.088;2023-05-10T14:12:51;16.00;99.90
23251;DHT22;11794;49.730;10.088;2023-05-10T14:15:16;16.10;99.90
23251;DHT22;11794;49.730;10.088;2023-05-10T14:17:42;16.30;99.90
23251;DHT22;11794;49.730;10.088;2023-05-10T14:20:08;16.50;99.90
23251;DHT22;11794;49.730;10.088;2023-05-10T14:22:34;16.60;99.90
23251;DHT22;11794;49.730;10.088;2023-05-10T14:25:00;16.70;99.90
23251;DHT22;11794;49.730;10.088;2023-05-10T14:27:26;16.70;99.90
23251;DHT22;11794;49.730;10.088;2023-05-10T14:29:51;16.50;99.90
23251;DHT22;11794;49.730;10.088;2023-05-10T14:32:18;16.30;99.90
23251;DHT22;11794;49.730;10.088;2023-05-10T14:34:44;16.20;99.90
23251;DHT22;11794;49.730;10.088;2023-05-10T14:37:13;16.00;99.90
23251;DHT22;11794;49.730;10.088;2023-05-10T14:39:39;15.90;99.90
23251;DHT22;11794;49.730;10.088;2023-05-10T14:42:04;15.80;99.90
23251;DHT22;11794;49.730;10.088;2023-05-10T14:44:30;15.80;99.90
23251;DHT22;11794;49.730;10.088;2023-05-10T14:46:55;15.80;99.90
23251;DHT22;11794;49.730;10.088;2023-05-10T14:49:22;15.80;99.90
23251;DHT22;11794;49.730;10.088;2023-05-10T14:51:49;15.80;99.90
23251;DHT22;11794;49.730;10.088;2023-05-10T14:54:15;15.80;99.90
23251;DHT22;11794;49.730;10.088;2023-05-10T14:56:41;15.90;99.90
23251;DHT22;11794;49.730;10.088;2023-05-10T14:59:07;16.10;99.90
23251;DHT22;11794;49.730;10.088;2023-05-10T15:01:33;16.30;99.90
23251;DHT22;11794;49.730;10.088;2023-05-10T15:04:00;16.20;99.90
23251;DHT22;11794;49.730;10.088;2023-05-10T15:06:35;16.20;99.90
23251;DHT22;11794;49.730;10.088;2023-05-10T15:09:01;16.30;99.90
23251;DHT22;11794;49.730;10.088;2023-05-10T15:11:28;16.40;99.90
23251;DHT22;11794;49.730;10.088;2023-05-10T15:13:54;16.40;99.90
23251;DHT22;11794;49.730;10.088;2023-05-10T15:16:20;16.40;99.90
23251;DHT22;11794;49.730;10.088;2023-05-10T15:18:46;16.40;99.90
23251;DHT22;11794;49.730;10.088;2023-05-10T15:21:11;16.40;99.90
23251;DHT22;11794;49.730;10.088;2023-05-10T15:23:37;16.60;99.90
23251;DHT22;11794;49.730;10.088;2023-05-10T15:26:03;16.90;99.90
23251;DHT22;11794;49.730;10.088;2023-05-10T15:28:28;16.90;99.90
23251;DHT22;11794;49.730;10.088;2023-05-10T15:30:54;17.10;99.90
23251;DHT22;11794;49.730;10.088;2023-05-10T15:33:19;17.20;99.90
23251;DHT22;11794;49.730;10.088;2023-05-10T15:35:45;17.20;99.90
23251;DHT22;11794;49.730;10.088;2023-05-10T15:38:10;17.10;99.90
23251;DHT22;11794;49.730;10.088;2023-05-10T15:40:36;17.10;99.90
23251;DHT22;11794;49.730;10.088;2023-05-10T15:43:02;17.00;99.90
23251;DHT22;11794;49.730;10.088;2023-05-10T15:45:27;17.10;99.90
23251;DHT22;11794;49.730;10.088;2023-05-10T15:47:53;17.20;99.90